Time;durP1;ratioP1;P1;durP2;ratioP2;P2;SDS_P1;SDS_P2;PMS_P1;PMS_P2;Temp;Humidity;BMP_temperature;BMP_pressure;BME280_temperature;BME280_humidity;BME280_pressure;Samples;Min_cycle;Max_cycle;Signal;HPM_P1;HPM_P2
2022/03/25 00:01:58;;;;;;;68.70;37.00;;;3.10;99.90;;;;;;5015528;28;20503;-54
2022/03/25 00:04:24;;;;;;;61.05;33.80;;;3.10;99.90;;;;;;5017525;28;20042;-56
2022/03/25 00:06:50;;;;;;;63.63;35.13;;;3.10;99.90;;;;;;5013006;28;20049;-56
2022/03/25 00:09:15;;;;;;;70.80;36.80;;;3.00;99.90;;;;;;5010300;28;20053;-55
2022/03/25 00:11:41;;;;;;;66.10;34.47;;;2.90;99.90;;;;;;5017037;28;20058;-55
2022/03/25 00:14:07;;;;;;;71.15;37.10;;;2.80;99.90;;;;;;5018634;28;20052;-55
2022/03/25 00:16:33;;;;;;;71.75;38.40;;;2.70;99.90;;;;;;5016988;28;20030;-55
2022/03/25 00:18:59;;;;;;;69.40;37.20;;;2.60;99.90;;;;;;5014758;28;20038;-57
2022/03/25 00:21:24;;;;;;;65.13;34.53;;;2.60;99.90;;;;;;5016353;28;20036;-55
2022/03/25 00:23:50;;;;;;;64.65;34.10;;;2.50;99.90;;;;;;5017430;28;20041;-55
2022/03/25 00:26:16;;;;;;;66.30;35.17;;;2.50;99.90;;;;;;5015820;28;20120;-56
2022/03/25 00:28:42;;;;;;;69.03;36.63;;;2.50;99.90;;;;;;5013867;28;20460;-55
2022/03/25 00:31:07;;;;;;;67.03;34.67;;;2.40;99.90;;;;;;5014076;28;20397;-55
2022/03/25 00:33:34;;;;;;;64.40;36.40;;;2.40;99.90;;;;;;5019775;28;20440;-54
2022/03/25 00:36:01;;;;;;;64.20;33.65;;;2.40;99.90;;;;;;5019156;28;20021;-56
2022/03/25 00:38:27;;;;;;;62.47;33.42;;;2.40;99.90;;;;;;5019527;28;20033;-55
2022/03/25 00:40:54;;;;;;;68.68;34.42;;;2.30;99.90;;;;;;5020843;28;20125;-55
2022/03/25 00:43:20;;;;;;;61.42;33.28;;;2.40;99.90;;;;;;5019877;28;20034;-54
2022/03/25 00:45:46;;;;;;;58.85;33.03;;;2.30;99.90;;;;;;5021889;28;20022;-54
2022/03/25 00:48:13;;;;;;;60.03;33.83;;;2.30;99.90;;;;;;5015898;28;20085;-54
2022/03/25 00:50:40;;;;;;;58.67;32.25;;;2.20;99.90;;;;;;5019909;28;20043;-55
2022/03/25 00:53:05;;;;;;;55.92;31.30;;;2.20;99.90;;;;;;5019873;28;20045;-54
2022/03/25 00:55:31;;;;;;;63.65;31.83;;;2.20;99.90;;;;;;5019177;28;20103;-56
2022/03/25 00:57:58;;;;;;;57.20;30.27;;;2.20;99.90;;;;;;5017532;28;20037;-56
2022/03/25 01:00:25;;;;;;;59.30;30.88;;;2.20;99.90;;;;;;5019528;28;20029;-55
2022/03/25 01:02:51;;;;;;;56.13;32.28;;;2.10;99.90;;;;;;5018271;28;20412;-55
2022/03/25 01:05:19;;;;;;;62.95;30.75;;;2.10;99.90;;;;;;5017441;28;20103;-55
2022/03/25 01:07:45;;;;;;;57.35;30.58;;;2.10;99.90;;;;;;5018270;28;20112;-56
2022/03/25 01:10:11;;;;;;;59.80;30.65;;;2.10;99.90;;;;;;5018609;28;20118;-55
2022/03/25 01:12:37;;;;;;;63.25;33.92;;;2.10;99.90;;;;;;5018340;28;20033;-56
2022/03/25 01:15:04;;;;;;;63.35;33.15;;;2.00;99.90;;;;;;5018095;28;20029;-55
2022/03/25 01:17:30;;;;;;;62.53;33.88;;;2.00;99.90;;;;;;5019339;28;20045;-56
2022/03/25 01:19:56;;;;;;;61.55;32.88;;;1.90;99.90;;;;;;5018702;28;20489;-55
2022/03/25 01:22:21;;;;;;;61.97;31.42;;;1.90;99.90;;;;;;5019008;28;20034;-56
2022/03/25 01:24:48;;;;;;;62.08;33.13;;;1.80;99.90;;;;;;5022359;28;20038;-55
2022/03/25 01:27:14;;;;;;;63.50;33.08;;;1.70;99.90;;;;;;5020659;28;20040;-55
2022/03/25 01:29:39;;;;;;;66.20;33.00;;;1.60;99.90;;;;;;5016880;28;20034;-56
2022/03/25 01:32:08;;;;;;;68.97;36.15;;;1.60;99.90;;;;;;5019300;28;20059;-55
2022/03/25 01:34:34;;;;;;;69.25;34.35;;;1.50;99.90;;;;;;5029297;28;20030;-56
2022/03/25 01:37:01;;;;;;;71.10;34.72;;;1.40;99.90;;;;;;5015911;28;20026;-56
2022/03/25 01:39:27;;;;;;;73.22;34.10;;;1.30;99.90;;;;;;5017062;28;20021;-56
2022/03/25 01:41:52;;;;;;;64.03;33.13;;;1.30;99.90;;;;;;5021395;28;20029;-55
2022/03/25 01:44:28;;;;;;;67.90;34.97;;;1.20;99.90;;;;;;5023560;28;20061;-55
2022/03/25 01:46:55;;;;;;;72.45;36.13;;;1.10;99.90;;;;;;5018995;28;20030;-56
2022/03/25 01:49:22;;;;;;;62.80;33.88;;;1.00;99.90;;;;;;5015514;28;20030;-55
2022/03/25 01:51:50;;;;;;;68.07;33.47;;;1.00;99.90;;;;;;5013344;28;20030;-55
2022/03/25 01:54:28;;;;;;;63.05;33.42;;;0.90;99.90;;;;;;5023287;28;20488;-56
2022/03/25 01:57:03;;;;;;;73.13;31.73;;;0.90;99.90;;;;;;5016952;28;20112;-54
2022/03/25 01:59:29;;;;;;;60.80;31.80;;;0.80;99.90;;;;;;5018709;28;20040;-55
2022/03/25 02:01:55;;;;;;;59.90;32.15;;;0.80;99.90;;;;;;5032543;28;20026;-55
2022/03/25 02:04:22;;;;;;;70.18;32.85;;;0.80;99.90;;;;;;5017868;28;20084;-55
2022/03/25 02:06:48;;;;;;;62.03;33.08;;;0.80;99.90;;;;;;5020572;28;20041;-55
2022/03/25 02:09:14;;;;;;;68.45;35.42;;;0.80;99.90;;;;;;5016866;28;20025;-55
2022/03/25 02:11:40;;;;;;;66.28;31.83;;;0.80;99.90;;;;;;5020562;28;20022;-56
2022/03/25 02:14:07;;;;;;;68.28;33.60;;;0.80;99.90;;;;;;5018308;28;20508;-56
2022/03/25 02:16:44;;;;;;;72.72;33.90;;;0.90;99.90;;;;;;5017866;28;20030;-55
2022/03/25 02:19:12;;;;;;;60.17;32.50;;;1.00;99.90;;;;;;5018820;28;20396;-55
2022/03/25 02:21:39;;;;;;;67.32;31.92;;;1.00;99.90;;;;;;5018321;28;20377;-56
2022/03/25 02:24:08;;;;;;;61.03;33.65;;;1.00;99.90;;;;;;5019326;28;20087;-57
2022/03/25 02:26:35;;;;;;;70.45;33.58;;;1.10;99.90;;;;;;5017401;28;20034;-54
2022/03/25 02:29:01;;;;;;;57.78;31.05;;;1.10;99.90;;;;;;5017787;28;20036;-54
2022/03/25 02:31:27;;;;;;;64.15;33.15;;;1.10;99.90;;;;;;5015709;28;20030;-56
2022/03/25 02:34:08;;;;;;;55.00;30.08;;;1.20;99.90;;;;;;5015950;28;20095;-55
2022/03/25 02:36:43;;;;;;;60.88;31.23;;;1.10;99.90;;;;;;5016954;28;20049;-54
2022/03/25 02:39:10;;;;;;;60.67;31.77;;;1.10;99.90;;;;;;5021716;28;20026;-55
2022/03/25 02:41:36;;;;;;;64.35;31.05;;;1.00;99.90;;;;;;5018012;28;20025;-55
2022/03/25 02:44:03;;;;;;;58.85;30.20;;;0.90;99.90;;;;;;5022005;28;20026;-55
2022/03/25 02:46:29;;;;;;;63.38;30.80;;;0.80;99.90;;;;;;5014937;28;20848;-57
2022/03/25 02:48:56;;;;;;;68.95;31.38;;;0.70;99.90;;;;;;5017564;28;20117;-56
2022/03/25 02:51:22;;;;;;;63.90;32.22;;;0.60;99.90;;;;;;5017464;28;20029;-55
2022/03/25 02:53:47;;;;;;;67.30;32.20;;;0.50;99.90;;;;;;5019385;28;20061;-55
2022/03/25 02:56:14;;;;;;;60.28;30.83;;;0.40;99.90;;;;;;5015889;28;20088;-55
2022/03/25 02:58:39;;;;;;;60.17;30.73;;;0.30;99.90;;;;;;5021193;28;20029;-55
2022/03/25 03:01:08;;;;;;;58.75;28.73;;;0.30;99.90;;;;;;5016736;28;20040;-56
2022/03/25 03:03:34;;;;;;;57.28;30.35;;;0.20;99.90;;;;;;5016349;28;20025;-56
2022/03/25 03:06:00;;;;;;;61.88;32.05;;;0.10;99.90;;;;;;5017790;28;20018;-54
2022/03/25 03:08:27;;;;;;;59.17;29.95;;;0.10;99.90;;;;;;5018196;28;20099;-56
2022/03/25 03:10:53;;;;;;;68.40;33.00;;;0.10;99.90;;;;;;5014711;28;20091;-56
2022/03/25 03:13:20;;;;;;;66.45;32.63;;;0.00;99.90;;;;;;5015223;28;20037;-56
2022/03/25 03:15:47;;;;;;;65.05;32.58;;;0.00;99.90;;;;;;5016644;28;20632;-55
2022/03/25 03:18:14;;;;;;;64.65;33.25;;;0.00;99.90;;;;;;5018864;28;20022;-56
2022/03/25 03:20:39;;;;;;;63.53;32.42;;;0.00;99.90;;;;;;5018234;28;20025;-55
2022/03/25 03:23:05;;;;;;;72.40;33.85;;;0.00;99.90;;;;;;5014757;28;20037;-55
2022/03/25 03:25:31;;;;;;;72.45;35.13;;;0.00;99.90;;;;;;5015837;28;20386;-55
2022/03/25 03:27:57;;;;;;;70.30;33.47;;;0.00;99.90;;;;;;5013886;28;20022;-54
2022/03/25 03:30:22;;;;;;;73.63;34.03;;;0.00;99.90;;;;;;5016075;28;20111;-55
2022/03/25 03:32:54;;;;;;;75.22;35.75;;;0.00;99.90;;;;;;5017288;28;20381;-56
2022/03/25 03:35:20;;;;;;;74.78;35.28;;;-0.10;99.90;;;;;;5015094;28;20136;-55
2022/03/25 03:37:46;;;;;;;67.20;32.08;;;0.00;99.90;;;;;;5012907;28;20113;-55
2022/03/25 03:40:16;;;;;;;73.30;33.40;;;0.00;99.90;;;;;;5015550;28;20040;-56
2022/03/25 03:42:42;;;;;;;60.83;30.33;;;-0.10;99.90;;;;;;5016241;28;20155;-56
2022/03/25 03:45:09;;;;;;;69.28;33.03;;;-0.10;99.90;;;;;;5016739;28;20636;-55
2022/03/25 03:47:36;;;;;;;67.30;32.80;;;-0.20;99.90;;;;;;5015378;28;20049;-57
2022/03/25 03:50:03;;;;;;;68.13;32.72;;;-0.20;99.90;;;;;;5017640;28;20544;-55
2022/03/25 03:52:30;;;;;;;69.22;31.60;;;-0.20;99.90;;;;;;5014021;28;20409;-54
2022/03/25 03:54:56;;;;;;;65.85;31.40;;;-0.30;99.90;;;;;;5015587;28;20037;-56
2022/03/25 03:57:22;;;;;;;66.43;33.00;;;-0.30;99.90;;;;;;5016040;28;20436;-55
2022/03/25 03:59:47;;;;;;;59.38;29.73;;;-0.30;99.90;;;;;;5015511;28;20465;-55
2022/03/25 04:02:13;;;;;;;61.83;31.52;;;-0.40;99.90;;;;;;5018483;28;20042;-55
2022/03/25 04:04:39;;;;;;;59.80;31.35;;;-0.40;99.90;;;;;;5018960;28;20076;-55
2022/03/25 04:07:04;;;;;;;58.90;30.77;;;-0.40;99.90;;;;;;5018559;28;20446;-55
2022/03/25 04:09:30;;;;;;;66.30;31.48;;;-0.50;99.90;;;;;;5021294;28;20480;-55
2022/03/25 04:11:56;;;;;;;74.90;34.40;;;-0.50;99.90;;;;;;5018573;28;20017;-54
2022/03/25 04:14:21;;;;;;;74.78;35.72;;;-0.50;99.90;;;;;;5024021;28;20045;-55
2022/03/25 04:16:47;;;;;;;80.28;37.00;;;-0.50;99.90;;;;;;5017422;28;20132;-56
2022/03/25 04:19:14;;;;;;;83.47;36.90;;;-0.50;99.90;;;;;;5017169;28;20037;-57
2022/03/25 04:21:42;;;;;;;81.43;37.33;;;-0.50;99.90;;;;;;5022280;28;20030;-56
2022/03/25 04:24:08;;;;;;;68.85;33.95;;;-0.40;99.90;;;;;;5018758;28;20033;-55
2022/03/25 04:26:33;;;;;;;75.07;35.22;;;-0.40;99.90;;;;;;5020868;28;20028;-56
2022/03/25 04:28:59;;;;;;;73.00;34.97;;;-0.40;99.90;;;;;;5019125;28;20498;-56
2022/03/25 04:31:24;;;;;;;69.72;33.63;;;-0.40;99.90;;;;;;5020544;28;20109;-55
2022/03/25 04:33:50;;;;;;;69.78;35.47;;;-0.40;99.90;;;;;;5021213;28;20025;-56
2022/03/25 04:36:15;;;;;;;68.82;33.40;;;-0.50;99.90;;;;;;5024028;28;20050;-56
2022/03/25 04:38:42;;;;;;;75.97;34.80;;;-0.50;99.90;;;;;;5020546;28;20029;-55
2022/03/25 04:41:10;;;;;;;73.63;34.47;;;-0.50;99.90;;;;;;5018172;28;20058;-56
2022/03/25 04:43:38;;;;;;;77.18;35.08;;;-0.60;99.90;;;;;;5018912;28;20513;-55
2022/03/25 04:46:04;;;;;;;66.00;34.67;;;-0.60;99.90;;;;;;5021897;28;20044;-56
2022/03/25 04:48:30;;;;;;;75.70;34.47;;;-0.70;99.90;;;;;;5022422;28;20022;-56
2022/03/25 04:50:56;;;;;;;68.45;34.72;;;-0.70;99.90;;;;;;5020154;28;20075;-55
2022/03/25 04:53:22;;;;;;;73.40;34.50;;;-0.70;99.90;;;;;;5019253;28;20128;-55
2022/03/25 04:55:47;;;;;;;71.20;33.97;;;-0.80;99.90;;;;;;5015753;28;20026;-55
2022/03/25 04:58:14;;;;;;;67.68;33.55;;;-0.80;99.90;;;;;;5035277;28;20124;-54
2022/03/25 05:00:40;;;;;;;68.75;33.03;;;-0.80;99.90;;;;;;5019045;28;20560;-55
2022/03/25 05:03:06;;;;;;;75.35;33.90;;;-0.80;99.90;;;;;;5019983;28;20029;-55
2022/03/25 05:05:32;;;;;;;70.63;32.08;;;-0.90;99.90;;;;;;5020705;28;20512;-55
2022/03/25 05:07:58;;;;;;;76.88;35.50;;;-0.90;99.90;;;;;;5018463;28;20030;-56
2022/03/25 05:10:24;;;;;;;72.40;34.38;;;-0.90;99.90;;;;;;5017387;28;20026;-55
2022/03/25 05:12:50;;;;;;;78.47;36.25;;;-0.90;99.90;;;;;;5041386;28;20545;-55
2022/03/25 05:15:16;;;;;;;77.68;34.70;;;-0.90;99.90;;;;;;5020770;28;20029;-55
2022/03/25 05:17:51;;;;;;;77.75;36.22;;;-0.90;99.90;;;;;;5015427;28;20030;-55
2022/03/25 05:20:18;;;;;;;76.63;35.80;;;-0.90;99.90;;;;;;5016261;28;20029;-56
2022/03/25 05:22:44;;;;;;;78.15;34.35;;;-0.90;99.90;;;;;;5016205;28;20034;-55
2022/03/25 05:25:10;;;;;;;83.85;37.90;;;-0.90;99.90;;;;;;5021894;28;20053;-55
2022/03/25 05:27:59;;;;;;;77.93;36.65;;;-0.80;99.90;;;;;;5021113;28;20111;-55
2022/03/25 05:30:28;;;;;;;77.22;34.15;;;-0.70;99.90;;;;;;5026344;28;20087;-56
2022/03/25 05:32:54;;;;;;;80.70;36.42;;;-0.70;99.90;;;;;;5016843;28;20371;-54
2022/03/25 05:35:21;;;;;;;76.88;36.30;;;-0.60;99.90;;;;;;5018223;28;20029;-55
2022/03/25 05:37:47;;;;;;;69.65;33.40;;;-0.50;99.90;;;;;;5015927;28;20022;-55
2022/03/25 05:40:13;;;;;;;72.78;35.47;;;-0.40;99.90;;;;;;5018129;28;20092;-55
2022/03/25 05:42:39;;;;;;;72.63;35.38;;;-0.30;99.90;;;;;;5019534;28;20495;-55
2022/03/25 05:45:07;;;;;;;69.32;34.50;;;-0.20;99.90;;;;;;5033385;28;20075;-56
2022/03/25 05:47:34;;;;;;;68.20;33.35;;;-0.20;99.90;;;;;;5017460;28;20041;-55
2022/03/25 05:50:00;;;;;;;64.50;31.80;;;-0.10;99.90;;;;;;5014986;28;20030;-56
2022/03/25 05:52:26;;;;;;;64.18;31.85;;;0.00;99.90;;;;;;5018225;28;20384;-55
2022/03/25 05:54:51;;;;;;;68.03;31.48;;;0.10;99.90;;;;;;5019203;28;20535;-55
2022/03/25 05:57:17;;;;;;;60.50;30.35;;;0.10;99.90;;;;;;5020282;28;20038;-56
2022/03/25 05:59:43;;;;;;;65.93;31.00;;;0.30;99.90;;;;;;5016314;28;20424;-56
2022/03/25 06:02:09;;;;;;;61.47;30.75;;;0.30;99.90;;;;;;5017926;28;20120;-55
2022/03/25 06:04:35;;;;;;;52.30;28.73;;;0.40;99.90;;;;;;5018623;28;20092;-55
2022/03/25 06:07:01;;;;;;;63.53;31.05;;;0.50;99.90;;;;;;5018499;28;20041;-54
2022/03/25 06:09:27;;;;;;;62.25;31.48;;;0.70;99.90;;;;;;5013243;28;20053;-56
2022/03/25 06:11:52;;;;;;;59.70;29.85;;;1.20;99.90;;;;;;5020093;28;20022;-56
2022/03/25 06:14:18;;;;;;;49.10;27.75;;;2.20;99.90;;;;;;5018015;28;20026;-56
2022/03/25 06:16:44;;;;;;;46.20;26.00;;;3.30;99.90;;;;;;5017206;28;20041;-56
2022/03/25 06:19:10;;;;;;;38.95;25.33;;;4.50;99.90;;;;;;5016408;28;20121;-56
2022/03/25 06:21:36;;;;;;;44.08;25.40;;;5.80;99.90;;;;;;5020168;28;20556;-55
2022/03/25 06:24:01;;;;;;;38.03;24.70;;;6.90;95.10;;;;;;5018885;28;20033;-56
2022/03/25 06:26:27;;;;;;;36.05;23.63;;;7.50;89.90;;;;;;5015083;28;20509;-57
2022/03/25 06:28:52;;;;;;;47.10;24.80;;;8.20;85.50;;;;;;5017785;28;20030;-56
2022/03/25 06:31:18;;;;;;;36.55;24.55;;;8.90;80.50;;;;;;5034888;28;20133;-56
2022/03/25 06:33:44;;;;;;;36.35;25.77;;;9.50;77.90;;;;;;5014917;28;20026;-57
2022/03/25 06:36:13;;;;;;;37.42;24.80;;;10.20;73.20;;;;;;5016232;28;20508;-57
2022/03/25 06:38:43;;;;;;;34.40;23.83;;;10.90;72.10;;;;;;5019551;28;20037;-56
2022/03/25 06:41:09;;;;;;;32.13;24.20;;;11.60;67.40;;;;;;5020770;28;20034;-57
2022/03/25 06:43:36;;;;;;;33.13;25.27;;;12.10;65.00;;;;;;5019276;28;20022;-56
2022/03/25 06:46:02;;;;;;;32.83;25.52;;;12.40;62.80;;;;;;5016204;28;20038;-56
2022/03/25 06:48:28;;;;;;;31.40;25.77;;;12.40;62.90;;;;;;5020510;28;20460;-56
2022/03/25 06:50:54;;;;;;;37.08;25.98;;;12.70;63.40;;;;;;5015670;28;20393;-57
2022/03/25 06:53:20;;;;;;;35.63;28.20;;;13.40;62.10;;;;;;5013828;28;20119;-56
2022/03/25 06:55:46;;;;;;;32.88;25.23;;;14.30;59.40;;;;;;5014844;28;20489;-57
2022/03/25 06:58:12;;;;;;;32.60;26.00;;;14.80;56.90;;;;;;5015848;28;20576;-57
2022/03/25 07:00:39;;;;;;;35.42;27.52;;;15.00;56.20;;;;;;5018706;28;20398;-57
2022/03/25 07:03:05;;;;;;;37.40;29.25;;;15.50;53.20;;;;;;5017385;28;20159;-55
2022/03/25 07:05:31;;;;;;;37.50;27.48;;;15.50;53.40;;;;;;5016535;28;20068;-56
2022/03/25 07:07:58;;;;;;;34.30;27.73;;;15.30;52.70;;;;;;5018408;28;20385;-56
2022/03/25 07:10:26;;;;;;;40.78;28.70;;;15.40;53.40;;;;;;5015388;28;20065;-57
2022/03/25 07:12:53;;;;;;;33.17;28.10;;;15.70;53.60;;;;;;5012872;28;20028;-56
2022/03/25 07:15:20;;;;;;;36.78;27.65;;;16.40;52.60;;;;;;5019776;28;20022;-59
2022/03/25 07:17:46;;;;;;;34.28;28.02;;;16.40;51.30;;;;;;5018094;28;20022;-56
2022/03/25 07:20:14;;;;;;;35.45;28.08;;;16.40;51.30;;;;;;5012604;28;20389;-57
2022/03/25 07:22:46;;;;;;;32.10;26.73;;;17.00;51.70;;;;;;5013767;28;20026;-56
2022/03/25 07:25:12;;;;;;;31.75;26.83;;;17.60;49.60;;;;;;5017195;28;20105;-56
2022/03/25 07:27:39;;;;;;;34.92;28.98;;;18.00;48.60;;;;;;5013320;28;20535;-57
2022/03/25 07:30:05;;;;;;;35.97;28.50;;;18.50;47.80;;;;;;5015347;28;20034;-57
2022/03/25 07:32:31;;;;;;;34.40;30.23;;;18.80;46.60;;;;;;5014612;28;20029;-58
2022/03/25 07:34:57;;;;;;;34.33;29.95;;;18.90;46.80;;;;;;5019248;28;20029;-56
2022/03/25 07:37:22;;;;;;;41.88;29.85;;;18.50;46.50;;;;;;5012286;28;20034;-57
2022/03/25 07:39:48;;;;;;;32.00;28.45;;;18.30;47.40;;;;;;5016040;28;20079;-57
2022/03/25 07:42:14;;;;;;;34.25;29.70;;;18.80;47.40;;;;;;5017822;28;20072;-57
2022/03/25 07:44:40;;;;;;;32.53;29.02;;;18.70;47.00;;;;;;5018479;28;20485;-58
2022/03/25 07:47:07;;;;;;;34.50;29.90;;;19.20;46.90;;;;;;5031291;28;20026;-57
2022/03/25 07:49:34;;;;;;;38.72;30.90;;;19.60;46.10;;;;;;5016177;28;20033;-57
2022/03/25 07:52:01;;;;;;;39.42;30.25;;;20.10;46.20;;;;;;5017364;28;20022;-58
2022/03/25 07:54:26;;;;;;;36.25;31.00;;;20.20;44.10;;;;;;5015713;28;20109;-57
2022/03/25 07:56:55;;;;;;;32.42;28.48;;;20.50;43.30;;;;;;5011771;28;20033;-57
2022/03/25 07:59:21;;;;;;;35.17;30.48;;;21.20;42.30;;;;;;5014286;28;20060;-56
2022/03/25 08:01:47;;;;;;;36.78;30.35;;;21.00;42.50;;;;;;5018149;28;20073;-58
2022/03/25 08:04:13;;;;;;;35.88;30.60;;;20.70;43.00;;;;;;5017147;28;20037;-57
2022/03/25 08:06:39;;;;;;;39.00;31.05;;;20.40;43.70;;;;;;5017167;28;20029;-57
2022/03/25 08:09:04;;;;;;;41.58;30.27;;;20.30;42.90;;;;;;5014468;28;20038;-57
2022/03/25 08:11:30;;;;;;;35.05;30.13;;;20.90;43.20;;;;;;5018231;28;20026;-57
2022/03/25 08:13:56;;;;;;;34.67;29.83;;;21.70;41.40;;;;;;5031804;28;20053;-57
2022/03/25 08:16:22;;;;;;;31.63;28.15;;;21.90;40.00;;;;;;5016705;28;20428;-57
2022/03/25 08:18:48;;;;;;;31.65;28.20;;;22.00;39.20;;;;;;5015626;28;20045;-57
2022/03/25 08:21:14;;;;;;;33.58;29.83;;;22.50;39.60;;;;;;5017663;28;20033;-57
2022/03/25 08:29:09;;;;;;;37.85;30.92;;;22.10;40.00;;;;;;5015147;28;20461;-57
2022/03/25 08:31:35;;;;;;;33.67;30.05;;;22.40;40.10;;;;;;5012807;28;20030;-57
2022/03/25 08:34:03;;;;;;;35.03;31.10;;;22.90;39.70;;;;;;5017126;28;20033;-58
2022/03/25 08:36:29;;;;;;;35.88;29.42;;;22.90;39.10;;;;;;5017000;28;20021;-57
2022/03/25 08:38:54;;;;;;;32.83;29.35;;;23.00;39.70;;;;;;5014614;28;20032;-57
2022/03/25 08:41:20;;;;;;;35.47;31.25;;;23.30;39.50;;;;;;5017982;28;20072;-57
2022/03/25 08:43:47;;;;;;;34.22;30.60;;;23.80;38.20;;;;;;5013398;28;20473;-58
2022/03/25 08:46:13;;;;;;;32.63;28.85;;;24.70;37.60;;;;;;5017165;28;20026;-58
2022/03/25 08:48:39;;;;;;;39.75;31.17;;;24.90;37.60;;;;;;5018601;28;20022;-57
2022/03/25 08:51:06;;;;;;;32.97;29.42;;;24.50;37.00;;;;;;5015640;28;20029;-58
2022/03/25 08:53:31;;;;;;;31.23;28.02;;;24.70;36.40;;;;;;5016707;28;20161;-57
2022/03/25 08:55:57;;;;;;;32.17;28.73;;;25.30;36.70;;;;;;5019158;28;20522;-58
2022/03/25 08:58:23;;;;;;;31.48;26.58;;;25.80;36.10;;;;;;5018427;28;20062;-57
2022/03/25 09:00:48;;;;;;;38.92;29.27;;;25.80;36.10;;;;;;5019909;28;20026;-57
2022/03/25 09:03:14;;;;;;;32.67;29.25;;;25.60;36.50;;;;;;5019271;28;20136;-57
2022/03/25 09:05:40;;;;;;;34.47;29.13;;;24.70;36.80;;;;;;5019165;28;20057;-57
2022/03/25 09:08:06;;;;;;;35.78;30.67;;;25.30;36.20;;;;;;5022358;28;20048;-57
2022/03/25 09:10:32;;;;;;;36.45;30.08;;;25.40;35.60;;;;;;5018906;28;20030;-58
2022/03/25 09:12:58;;;;;;;33.55;29.08;;;25.50;36.30;;;;;;5016426;28;20046;-57
2022/03/25 09:15:24;;;;;;;37.50;30.08;;;25.70;37.10;;;;;;5020884;28;20036;-58
2022/03/25 09:17:51;;;;;;;34.95;29.55;;;25.60;35.30;;;;;;5019531;28;20144;-57
2022/03/25 09:20:17;;;;;;;36.33;30.27;;;26.50;34.20;;;;;;5022167;28;20037;-58
2022/03/25 09:22:43;;;;;;;37.28;29.17;;;26.80;33.30;;;;;;5019391;28;20389;-58
2022/03/25 09:25:11;;;;;;;38.90;29.90;;;27.20;33.40;;;;;;5017880;28;20033;-58
2022/03/25 09:27:38;;;;;;;37.05;29.33;;;27.70;32.50;;;;;;5020183;28;20587;-58
2022/03/25 09:30:05;;;;;;;40.50;29.20;;;28.10;34.10;;;;;;5018216;28;20033;-57
2022/03/25 09:32:30;;;;;;;44.78;29.73;;;28.80;30.80;;;;;;5022794;28;20030;-58
2022/03/25 09:35:08;;;;;;;31.42;27.95;;;29.70;29.80;;;;;;5020172;28;20128;-58
2022/03/25 09:37:38;;;;;;;33.58;29.13;;;30.30;29.00;;;;;;5017968;28;20375;-58
2022/03/25 09:40:08;;;;;;;43.33;30.90;;;30.20;29.20;;;;;;5021515;28;20037;-58
2022/03/25 09:42:35;;;;;;;39.13;31.27;;;29.80;27.90;;;;;;5015168;28;20129;-58
2022/03/25 09:45:03;;;;;;;34.20;29.90;;;29.50;28.40;;;;;;5021096;28;20562;-58
2022/03/25 09:47:30;;;;;;;43.40;30.80;;;29.50;28.40;;;;;;5014885;28;20042;-59
2022/03/25 09:49:56;;;;;;;33.65;30.30;;;29.20;28.40;;;;;;5022329;28;20026;-58
2022/03/25 09:52:23;;;;;;;40.25;32.22;;;28.90;28.60;;;;;;5016609;28;20086;-58
2022/03/25 09:54:48;;;;;;;38.33;30.42;;;29.10;28.40;;;;;;5018804;28;20038;-58
2022/03/25 09:57:14;;;;;;;44.10;30.60;;;29.00;28.30;;;;;;5017726;28;20029;-58
2022/03/25 09:59:40;;;;;;;35.58;31.10;;;29.00;29.10;;;;;;5017736;28;20763;-58
2022/03/25 10:02:06;;;;;;;39.90;30.58;;;29.10;29.10;;;;;;5020180;28;20049;-58
2022/03/25 10:04:51;;;;;;;35.67;28.42;;;29.20;28.90;;;;;;5015926;28;20034;-58
2022/03/25 10:07:28;;;;;;;39.00;31.88;;;28.80;29.40;;;;;;5019188;28;20026;-58
2022/03/25 10:10:17;;;;;;;40.20;32.45;;;28.90;27.30;;;;;;5015568;28;20040;-57
2022/03/25 10:12:51;;;;;;;37.78;28.65;;;28.20;27.50;;;;;;5017552;28;20113;-57
2022/03/25 10:15:22;;;;;;;33.63;28.80;;;28.50;28.90;;;;;;5018365;28;20021;-58
2022/03/25 10:17:53;;;;;;;39.28;31.52;;;28.90;28.80;;;;;;5018553;28;20512;-57
2022/03/25 10:20:22;;;;;;;42.65;29.83;;;27.30;27.70;;;;;;5018760;28;20871;-57
2022/03/25 10:23:09;;;;;;;40.60;30.23;;;27.70;30.00;;;;;;5019078;28;20026;-58
2022/03/25 10:25:42;;;;;;;41.35;30.55;;;25.90;29.00;;;;;;5015077;28;20105;-58
2022/03/25 10:28:40;;;;;;;38.83;30.17;;;24.10;31.70;;;;;;5020305;28;20032;-57
2022/03/25 10:31:11;;;;;;;44.35;31.08;;;24.60;32.20;;;;;;5015191;28;20034;-59
2022/03/25 10:33:45;;;;;;;42.67;30.48;;;25.30;31.70;;;;;;5019843;28;20030;-58
2022/03/25 10:36:14;;;;;;;39.60;30.02;;;26.00;30.00;;;;;;5019093;28;20022;-58
2022/03/25 10:39:01;;;;;;;35.85;28.92;;;26.10;30.10;;;;;;5019986;28;20046;-57
2022/03/25 10:41:38;;;;;;;42.95;31.33;;;25.60;31.30;;;;;;5017228;28;20501;-58
2022/03/25 10:44:05;;;;;;;41.88;30.50;;;25.80;30.30;;;;;;5020459;28;20038;-58
2022/03/25 10:46:39;;;;;;;45.38;31.08;;;24.70;30.60;;;;;;5014835;28;20096;-58
2022/03/25 10:49:10;;;;;;;35.75;28.40;;;23.10;34.80;;;;;;5019800;28;20512;-58
2022/03/25 10:51:38;;;;;;;46.15;31.10;;;24.10;34.60;;;;;;5014704;28;20018;-57
2022/03/25 10:54:10;;;;;;;42.50;31.35;;;24.50;30.40;;;;;;5017801;28;20048;-57
2022/03/25 10:56:50;;;;;;;35.83;28.75;;;24.60;32.00;;;;;;5018463;28;20061;-58
2022/03/25 10:59:22;;;;;;;42.88;30.08;;;24.80;33.50;;;;;;5020544;28;20493;-58
2022/03/25 11:01:50;;;;;;;51.75;28.90;;;25.40;32.10;;;;;;5015422;28;20112;-59
2022/03/25 11:04:16;;;;;;;42.20;28.63;;;24.90;32.20;;;;;;5017764;28;20038;-57
2022/03/25 11:06:44;;;;;;;34.40;27.67;;;25.20;31.30;;;;;;5015175;28;20037;-57
2022/03/25 11:09:09;;;;;;;31.88;28.17;;;25.40;31.40;;;;;;5018638;28;20145;-57
2022/03/25 11:11:37;;;;;;;36.75;28.45;;;25.30;30.60;;;;;;5018811;28;20030;-57
2022/03/25 11:14:04;;;;;;;40.78;27.60;;;25.30;31.40;;;;;;5022884;28;20485;-57
2022/03/25 11:16:32;;;;;;;32.50;26.95;;;25.30;31.60;;;;;;5018093;28;20640;-57
2022/03/25 11:18:57;;;;;;;40.30;30.27;;;25.20;30.80;;;;;;5016063;28;20040;-57
2022/03/25 11:21:24;;;;;;;40.92;29.33;;;24.80;30.80;;;;;;5020155;28;20033;-57
2022/03/25 11:23:54;;;;;;;40.17;30.88;;;25.00;31.70;;;;;;5015584;28;20040;-58
2022/03/25 11:26:23;;;;;;;39.03;28.88;;;24.60;31.10;;;;;;5019649;28;20030;-57
2022/03/25 11:28:53;;;;;;;38.10;29.33;;;24.30;33.50;;;;;;5019787;28;20709;-58
2022/03/25 11:31:19;;;;;;;40.65;30.80;;;25.00;33.50;;;;;;5018925;28;20037;-57
2022/03/25 11:34:09;;;;;;;45.45;31.13;;;25.20;31.30;;;;;;5017849;28;20025;-58
2022/03/25 11:36:41;;;;;;;40.80;30.10;;;25.30;31.50;;;;;;5019424;28;20044;-57
2022/03/25 11:39:24;;;;;;;39.85;30.23;;;25.30;30.30;;;;;;5018271;28;20041;-58
2022/03/25 11:41:53;;;;;;;40.10;28.77;;;23.90;31.10;;;;;;5014928;28;20041;-57
2022/03/25 11:44:23;;;;;;;42.28;31.05;;;23.60;35.20;;;;;;5019083;28;20030;-57
2022/03/25 11:47:03;;;;;;;40.35;30.02;;;23.10;31.40;;;;;;5016803;28;20037;-57
2022/03/25 11:49:38;;;;;;;34.42;27.30;;;23.20;31.80;;;;;;5019811;28;20392;-57
2022/03/25 11:52:15;;;;;;;42.22;29.92;;;22.90;35.00;;;;;;5018999;28;20034;-57
2022/03/25 11:54:43;;;;;;;37.75;28.67;;;23.00;33.20;;;;;;5022735;28;20034;-57
2022/03/25 11:57:22;;;;;;;38.80;28.98;;;23.30;36.40;;;;;;5014928;28;20053;-57
2022/03/25 11:59:52;;;;;;;37.67;29.70;;;23.20;34.60;;;;;;5019532;28;20390;-57
2022/03/25 12:02:29;;;;;;;40.25;29.25;;;23.10;33.30;;;;;;5017302;28;20493;-58
2022/03/25 12:04:56;;;;;;;35.65;27.77;;;22.90;34.80;;;;;;5016022;28;20037;-58
2022/03/25 12:07:21;;;;;;;35.95;27.13;;;22.10;35.00;;;;;;5015898;28;20475;-57
2022/03/25 12:09:47;;;;;;;40.63;28.10;;;22.30;36.40;;;;;;5016772;28;20117;-57
2022/03/25 12:12:14;;;;;;;48.47;31.55;;;22.90;36.00;;;;;;5013540;28;20037;-58
2022/03/25 12:15:04;;;;;;;41.05;29.58;;;23.30;34.30;;;;;;5011518;28;20053;-58
2022/03/25 12:17:30;;;;;;;35.05;28.27;;;23.80;33.30;;;;;;5032906;28;20041;-58
2022/03/25 12:19:56;;;;;;;44.22;27.55;;;23.50;33.10;;;;;;5018329;28;20033;-58
2022/03/25 12:22:22;;;;;;;36.78;28.08;;;23.80;33.80;;;;;;5017939;28;20389;-57
2022/03/25 12:24:52;;;;;;;31.25;26.42;;;24.10;34.20;;;;;;5019051;28;20024;-57
2022/03/25 12:27:19;;;;;;;33.92;27.55;;;23.90;33.70;;;;;;5015499;28;20108;-57
2022/03/25 12:29:51;;;;;;;33.58;26.70;;;23.90;31.00;;;;;;5021068;28;20038;-57
2022/03/25 12:32:18;;;;;;;42.38;28.35;;;23.30;31.30;;;;;;5021529;28;20436;-57
2022/03/25 12:35:16;;;;;;;35.95;26.50;;;23.30;32.40;;;;;;5019232;28;20093;-57
2022/03/25 12:37:55;;;;;;;35.25;26.75;;;23.40;33.50;;;;;;5021307;28;20034;-57
2022/03/25 12:40:27;;;;;;;37.72;25.85;;;23.60;33.90;;;;;;5019200;28;20389;-58